sensor_id;sensor_type;location;lat;lon;timestamp;P1;durP1;ratioP1;P2;durP2;ratioP2
50379;SDS011;37474;59.468;18.040;2022-08-11T11:30:18;5.05;;;1.05;;
50379;SDS011;37474;59.468;18.040;2022-08-11T11:32:48;2.92;;;0.90;;
50379;SDS011;37474;59.468;18.040;2022-08-11T11:35:31;1.85;;;1.00;;
50379;SDS011;37474;59.468;18.040;2022-08-11T11:38:10;6.03;;;1.00;;
50379;SDS011;37474;59.468;18.040;2022-08-11T11:40:39;6.00;;;1.00;;
50379;SDS011;37474;59.468;18.040;2022-08-11T11:43:08;2.97;;;1.02;;
50379;SDS011;37474;59.468;18.040;2022-08-11T11:45:42;7.43;;;1.67;;
50379;SDS011;37474;59.468;18.040;2022-08-11T11:48:11;2.30;;;1.00;;
50379;SDS011;37474;59.468;18.040;2022-08-11T11:50:44;2.35;;;1.00;;
50379;SDS011;37474;59.468;18.040;2022-08-11T11:53:13;2.72;;;1.10;;
50379;SDS011;37474;59.468;18.040;2022-08-11T11:55:42;3.85;;;1.20;;
50379;SDS011;37474;59.468;18.040;2022-08-11T11:58:14;2.55;;;0.98;;
50379;SDS011;37474;59.468;18.040;2022-08-11T12:01:03;6.18;;;1.10;;
50379;SDS011;37474;59.468;18.040;2022-08-11T12:03:46;3.35;;;1.08;;
50379;SDS011;37474;59.468;18.040;2022-08-11T12:06:17;2.28;;;1.05;;
50379;SDS011;37474;59.468;18.040;2022-08-11T12:08:49;2.35;;;1.05;;
50379;SDS011;37474;59.468;18.040;2022-08-11T12:11:20;2.17;;;1.00;;
50379;SDS011;37474;59.468;18.040;2022-08-11T12:14:12;4.55;;;1.10;;
50379;SDS011;37474;59.468;18.040;2022-08-11T12:16:46;2.38;;;1.00;;
50379;SDS011;37474;59.468;18.040;2022-08-11T12:19:17;3.33;;;1.10;;
50379;SDS011;37474;59.468;18.040;2022-08-11T12:21:49;3.10;;;1.05;;
50379;SDS011;37474;59.468;18.040;2022-08-11T12:24:36;2.83;;;1.10;;
50379;SDS011;37474;59.468;18.040;2022-08-11T12:27:23;4.40;;;1.08;;
50379;SDS011;37474;59.468;18.040;2022-08-11T12:29:58;3.03;;;1.08;;
50379;SDS011;37474;59.468;18.040;2022-08-11T12:32:35;5.38;;;1.30;;
50379;SDS011;37474;59.468;18.040;2022-08-11T12:35:06;3.15;;;1.10;;
50379;SDS011;37474;59.468;18.040;2022-08-11T12:37:36;2.17;;;0.95;;
50379;SDS011;37474;59.468;18.040;2022-08-11T12:40:08;1.95;;;0.95;;
50379;SDS011;37474;59.468;18.040;2022-08-11T12:43:27;4.13;;;1.10;;
50379;SDS011;37474;59.468;18.040;2022-08-11T12:46:22;4.10;;;0.90;;
50379;SDS011;37474;59.468;18.040;2022-08-11T12:49:00;3.08;;;1.42;;
50379;SDS011;37474;59.468;18.040;2022-08-11T12:54:44;3.72;;;1.15;;
50379;SDS011;37474;59.468;18.040;2022-08-11T12:57:23;4.00;;;1.40;;
50379;SDS011;37474;59.468;18.040;2022-08-11T13:00:14;3.25;;;1.10;;
50379;SDS011;37474;59.468;18.040;2022-08-11T13:03:04;3.50;;;1.10;;
50379;SDS011;37474;59.468;18.040;2022-08-11T13:05:56;4.60;;;1.00;;
50379;SDS011;37474;59.468;18.040;2022-08-11T13:08:27;3.50;;;1.20;;
50379;SDS011;37474;59.468;18.040;2022-08-11T13:10:58;2.65;;;1.25;;
50379;SDS011;37474;59.468;18.040;2022-08-11T13:13:45;3.72;;;1.00;;
50379;SDS011;37474;59.468;18.040;2022-08-11T13:16:23;2.85;;;0.90;;
50379;SDS011;37474;59.468;18.040;2022-08-11T13:18:54;3.85;;;1.23;;
50379;SDS011;37474;59.468;18.040;2022-08-11T13:21:29;3.35;;;1.50;;
50379;SDS011;37474;59.468;18.040;2022-08-11T13:23:57;3.67;;;1.20;;
50379;SDS011;37474;59.468;18.040;2022-08-11T13:26:32;4.78;;;1.15;;
50379;SDS011;37474;59.468;18.040;2022-08-11T13:29:19;3.17;;;0.90;;
50379;SDS011;37474;59.468;18.040;2022-08-11T13:31:52;2.65;;;1.25;;
50379;SDS011;37474;59.468;18.040;2022-08-11T13:34:23;3.88;;;1.15;;
50379;SDS011;37474;59.468;18.040;2022-08-11T13:36:57;6.80;;;1.40;;
50379;SDS011;37474;59.468;18.040;2022-08-11T13:39:27;3.25;;;0.93;;
50379;SDS011;37474;59.468;18.040;2022-08-11T13:42:01;2.45;;;1.20;;
50379;SDS011;37474;59.468;18.040;2022-08-11T13:44:32;2.88;;;0.95;;
50379;SDS011;37474;59.468;18.040;2022-08-11T13:47:07;3.17;;;1.17;;
50379;SDS011;37474;59.468;18.040;2022-08-11T13:49:38;2.88;;;1.13;;
50379;SDS011;37474;59.468;18.040;2022-08-11T13:52:14;2.92;;;1.10;;
50379;SDS011;37474;59.468;18.040;2022-08-11T13:54:43;2.20;;;1.30;;
50379;SDS011;37474;59.468;18.040;2022-08-11T13:57:16;3.13;;;1.05;;
50379;SDS011;37474;59.468;18.040;2022-08-11T14:00:08;2.75;;;0.95;;
50379;SDS011;37474;59.468;18.040;2022-08-11T14:02:55;2.03;;;0.98;;
50379;SDS011;37474;59.468;18.040;2022-08-11T14:05:26;2.45;;;0.93;;
50379;SDS011;37474;59.468;18.040;2022-08-11T14:08:03;2.22;;;1.00;;
50379;SDS011;37474;59.468;18.040;2022-08-11T14:10:58;2.97;;;1.20;;
50379;SDS011;37474;59.468;18.040;2022-08-11T14:14:07;3.15;;;1.17;;
50379;SDS011;37474;59.468;18.040;2022-08-11T14:16:40;2.88;;;1.10;;
50379;SDS011;37474;59.468;18.040;2022-08-11T14:19:11;3.53;;;0.80;;
50379;SDS011;37474;59.468;18.040;2022-08-11T14:21:43;2.10;;;0.90;;
50379;SDS011;37474;59.468;18.040;2022-08-11T14:24:35;3.83;;;1.10;;
50379;SDS011;37474;59.468;18.040;2022-08-11T14:27:04;4.03;;;0.95;;
50379;SDS011;37474;59.468;18.040;2022-08-11T14:29:53;2.77;;;0.93;;
50379;SDS011;37474;59.468;18.040;2022-08-11T14:32:21;3.40;;;1.27;;
50379;SDS011;37474;59.468;18.040;2022-08-11T14:34:52;1.35;;;0.60;;
50379;SDS011;37474;59.468;18.040;2022-08-11T14:37:21;1.48;;;0.70;;
50379;SDS011;37474;59.468;18.040;2022-08-11T14:39:53;2.83;;;0.90;;
50379;SDS011;37474;59.468;18.040;2022-08-11T14:42:32;3.05;;;0.90;;
50379;SDS011;37474;59.468;18.040;2022-08-11T14:45:18;3.15;;;0.90;;
50379;SDS011;37474;59.468;18.040;2022-08-11T14:48:23;2.35;;;1.00;;
50379;SDS011;37474;59.468;18.040;2022-08-11T14:53:23;1.55;;;0.70;;
50379;SDS011;37474;59.468;18.040;2022-08-11T14:55:53;3.53;;;0.90;;
50379;SDS011;37474;59.468;18.040;2022-08-11T14:58:40;2.77;;;1.00;;
50379;SDS011;37474;59.468;18.040;2022-08-11T15:01:09;3.88;;;0.98;;
50379;SDS011;37474;59.468;18.040;2022-08-11T15:03:54;2.45;;;0.90;;
50379;SDS011;37474;59.468;18.040;2022-08-11T15:06:42;1.73;;;0.77;;
50379;SDS011;37474;59.468;18.040;2022-08-11T15:09:12;1.75;;;0.80;;
50379;SDS011;37474;59.468;18.040;2022-08-11T15:11:42;2.80;;;0.82;;
50379;SDS011;37474;59.468;18.040;2022-08-11T15:14:28;1.50;;;0.82;;
50379;SDS011;37474;59.468;18.040;2022-08-11T15:17:21;1.70;;;0.77;;
50379;SDS011;37474;59.468;18.040;2022-08-11T15:20:10;3.28;;;0.90;;
50379;SDS011;37474;59.468;18.040;2022-08-11T15:25:48;2.33;;;1.00;;
50379;SDS011;37474;59.468;18.040;2022-08-11T15:31:14;1.42;;;0.82;;
50379;SDS011;37474;59.468;18.040;2022-08-11T15:34:05;2.60;;;1.10;;
50379;SDS011;37474;59.468;18.040;2022-08-11T15:36:56;1.20;;;0.80;;
50379;SDS011;37474;59.468;18.040;2022-08-11T15:39:47;2.78;;;0.80;;
50379;SDS011;37474;59.468;18.040;2022-08-11T15:42:56;2.13;;;0.90;;
50379;SDS011;37474;59.468;18.040;2022-08-11T15:46:05;2.95;;;0.80;;
50379;SDS011;37474;59.468;18.040;2022-08-11T15:48:40;1.98;;;0.88;;
50379;SDS011;37474;59.468;18.040;2022-08-11T15:51:15;4.32;;;1.20;;
50379;SDS011;37474;59.468;18.040;2022-08-11T15:53:51;4.13;;;0.98;;
50379;SDS011;37474;59.468;18.040;2022-08-11T15:56:22;3.35;;;1.00;;
50379;SDS011;37474;59.468;18.040;2022-08-11T15:58:57;4.00;;;1.20;;
50379;SDS011;37474;59.468;18.040;2022-08-11T16:02:08;1.80;;;0.88;;
50379;SDS011;37474;59.468;18.040;2022-08-11T16:05:02;2.95;;;0.90;;
50379;SDS011;37474;59.468;18.040;2022-08-11T16:07:34;2.85;;;0.95;;
50379;SDS011;37474;59.468;18.040;2022-08-11T16:10:07;4.90;;;1.30;;
50379;SDS011;37474;59.468;18.040;2022-08-11T16:12:44;2.92;;;1.00;;
50379;SDS011;37474;59.468;18.040;2022-08-11T16:15:48;3.03;;;1.00;;
50379;SDS011;37474;59.468;18.040;2022-08-11T16:18:38;4.78;;;1.17;;
50379;SDS011;37474;59.468;18.040;2022-08-11T16:21:17;4.47;;;1.10;;
50379;SDS011;37474;59.468;18.040;2022-08-11T16:24:03;3.28;;;1.17;;
50379;SDS011;37474;59.468;18.040;2022-08-11T16:26:55;3.15;;;1.50;;
50379;SDS011;37474;59.468;18.040;2022-08-11T16:29:38;2.60;;;1.13;;
50379;SDS011;37474;59.468;18.040;2022-08-11T16:32:11;1.92;;;1.00;;
50379;SDS011;37474;59.468;18.040;2022-08-11T16:34:51;3.25;;;1.15;;
50379;SDS011;37474;59.468;18.040;2022-08-11T16:37:39;3.22;;;1.23;;
50379;SDS011;37474;59.468;18.040;2022-08-11T16:40:26;2.78;;;1.20;;
50379;SDS011;37474;59.468;18.040;2022-08-11T16:42:55;3.08;;;1.15;;
50379;SDS011;37474;59.468;18.040;2022-08-11T16:45:42;2.42;;;1.08;;
50379;SDS011;37474;59.468;18.040;2022-08-11T16:48:30;6.32;;;1.20;;
50379;SDS011;37474;59.468;18.040;2022-08-11T16:51:09;2.22;;;1.20;;
50379;SDS011;37474;59.468;18.040;2022-08-11T16:53:39;3.88;;;1.20;;
50379;SDS011;37474;59.468;18.040;2022-08-11T16:56:34;2.58;;;1.23;;
50379;SDS011;37474;59.468;18.040;2022-08-11T16:59:05;4.00;;;1.20;;
50379;SDS011;37474;59.468;18.040;2022-08-11T17:01:46;6.05;;;1.58;;
50379;SDS011;37474;59.468;18.040;2022-08-11T17:04:20;2.50;;;1.05;;
50379;SDS011;37474;59.468;18.040;2022-08-11T17:07:16;3.80;;;1.20;;
50379;SDS011;37474;59.468;18.040;2022-08-11T17:10:10;1.42;;;0.98;;
50379;SDS011;37474;59.468;18.040;2022-08-11T17:13:20;2.47;;;1.13;;
50379;SDS011;37474;59.468;18.040;2022-08-11T17:15:53;5.32;;;1.10;;
50379;SDS011;37474;59.468;18.040;2022-08-11T17:18:36;2.38;;;1.10;;
50379;SDS011;37474;59.468;18.040;2022-08-11T17:21:18;2.25;;;0.90;;
50379;SDS011;37474;59.468;18.040;2022-08-11T17:23:53;4.65;;;1.33;;
50379;SDS011;37474;59.468;18.040;2022-08-11T17:26:25;2.08;;;1.00;;
50379;SDS011;37474;59.468;18.040;2022-08-11T17:29:22;2.45;;;1.10;;
50379;SDS011;37474;59.468;18.040;2022-08-11T17:31:52;2.42;;;1.10;;
50379;SDS011;37474;59.468;18.040;2022-08-11T17:34:43;4.13;;;0.95;;
50379;SDS011;37474;59.468;18.040;2022-08-11T17:37:30;4.33;;;1.10;;
50379;SDS011;37474;59.468;18.040;2022-08-11T17:40:09;2.85;;;1.00;;
50379;SDS011;37474;59.468;18.040;2022-08-11T17:42:40;1.75;;;1.20;;
50379;SDS011;37474;59.468;18.040;2022-08-11T17:45:32;2.38;;;1.30;;
50379;SDS011;37474;59.468;18.040;2022-08-11T17:48:20;2.30;;;1.10;;
50379;SDS011;37474;59.468;18.040;2022-08-11T17:50:56;3.15;;;1.20;;
50379;SDS011;37474;59.468;18.040;2022-08-11T17:53:26;3.40;;;1.30;;
50379;SDS011;37474;59.468;18.040;2022-08-11T17:56:39;3.65;;;1.17;;
50379;SDS011;37474;59.468;18.040;2022-08-11T17:59:25;5.88;;;1.20;;
50379;SDS011;37474;59.468;18.040;2022-08-11T18:02:17;2.67;;;1.23;;
50379;SDS011;37474;59.468;18.040;2022-08-11T18:05:17;4.68;;;1.10;;
50379;SDS011;37474;59.468;18.040;2022-08-11T18:07:49;3.58;;;1.17;;
50379;SDS011;37474;59.468;18.040;2022-08-11T18:10:37;3.47;;;1.05;;
50379;SDS011;37474;59.468;18.040;2022-08-11T18:13:28;2.78;;;1.35;;
50379;SDS011;37474;59.468;18.040;2022-08-11T18:16:21;3.42;;;1.00;;
50379;SDS011;37474;59.468;18.040;2022-08-11T18:19:09;2.85;;;1.15;;
50379;SDS011;37474;59.468;18.040;2022-08-11T18:21:56;2.17;;;1.10;;
50379;SDS011;37474;59.468;18.040;2022-08-11T18:24:52;3.17;;;1.38;;
50379;SDS011;37474;59.468;18.040;2022-08-11T18:27:42;5.32;;;1.25;;
50379;SDS011;37474;59.468;18.040;2022-08-11T18:30:35;1.98;;;1.00;;
50379;SDS011;37474;59.468;18.040;2022-08-11T18:33:32;4.47;;;1.20;;
50379;SDS011;37474;59.468;18.040;2022-08-11T18:36:36;5.07;;;1.27;;
50379;SDS011;37474;59.468;18.040;2022-08-11T18:42:21;4.38;;;1.30;;
50379;SDS011;37474;59.468;18.040;2022-08-11T18:45:09;5.90;;;1.25;;
50379;SDS011;37474;59.468;18.040;2022-08-11T18:48:14;2.47;;;0.98;;
50379;SDS011;37474;59.468;18.040;2022-08-11T18:51:04;2.55;;;1.23;;
50379;SDS011;37474;59.468;18.040;2022-08-11T18:54:03;6.03;;;1.70;;
50379;SDS011;37474;59.468;18.040;2022-08-11T18:56:53;3.17;;;1.70;;
50379;SDS011;37474;59.468;18.040;2022-08-11T18:59:46;3.00;;;1.35;;
50379;SDS011;37474;59.468;18.040;2022-08-11T19:02:34;3.88;;;1.48;;
50379;SDS011;37474;59.468;18.040;2022-08-11T19:05:26;1.90;;;1.20;;
50379;SDS011;37474;59.468;18.040;2022-08-11T19:08:36;3.10;;;1.25;;
50379;SDS011;37474;59.468;18.040;2022-08-11T19:11:27;2.42;;;1.30;;
50379;SDS011;37474;59.468;18.040;2022-08-11T19:14:15;1.92;;;1.33;;
50379;SDS011;37474;59.468;18.040;2022-08-11T19:17:05;4.22;;;1.30;;
50379;SDS011;37474;59.468;18.040;2022-08-11T19:20:12;3.42;;;1.40;;
50379;SDS011;37474;59.468;18.040;2022-08-11T19:23:04;1.60;;;1.10;;
50379;SDS011;37474;59.468;18.040;2022-08-11T19:25:52;3.85;;;1.13;;
50379;SDS011;37474;59.468;18.040;2022-08-11T19:28:41;2.33;;;1.10;;
50379;SDS011;37474;59.468;18.040;2022-08-11T19:31:30;2.83;;;1.13;;
50379;SDS011;37474;59.468;18.040;2022-08-11T19:34:21;3.58;;;1.15;;
50379;SDS011;37474;59.468;18.040;2022-08-11T19:37:09;5.22;;;1.40;;
50379;SDS011;37474;59.468;18.040;2022-08-11T19:39:58;5.95;;;1.40;;
50379;SDS011;37474;59.468;18.040;2022-08-11T19:42:45;3.58;;;1.33;;
50379;SDS011;37474;59.468;18.040;2022-08-11T19:45:48;2.25;;;1.20;;
50379;SDS011;37474;59.468;18.040;2022-08-11T19:48:35;4.03;;;1.50;;
50379;SDS011;37474;59.468;18.040;2022-08-11T19:51:24;3.95;;;1.52;;
50379;SDS011;37474;59.468;18.040;2022-08-11T19:54:11;3.67;;;1.30;;
50379;SDS011;37474;59.468;18.040;2022-08-11T19:57:00;4.70;;;1.50;;
50379;SDS011;37474;59.468;18.040;2022-08-11T19:59:48;2.45;;;1.35;;
50379;SDS011;37474;59.468;18.040;2022-08-11T20:02:36;1.90;;;1.10;;
50379;SDS011;37474;59.468;18.040;2022-08-11T20:05:21;3.35;;;1.73;;
50379;SDS011;37474;59.468;18.040;2022-08-11T20:08:26;4.22;;;1.20;;
50379;SDS011;37474;59.468;18.040;2022-08-11T20:11:13;3.95;;;1.40;;
50379;SDS011;37474;59.468;18.040;2022-08-11T20:14:03;4.65;;;1.52;;
50379;SDS011;37474;59.468;18.040;2022-08-11T20:16:50;4.35;;;1.40;;
50379;SDS011;37474;59.468;18.040;2022-08-11T20:19:39;2.90;;;1.48;;
50379;SDS011;37474;59.468;18.040;2022-08-11T20:22:26;2.42;;;1.35;;
50379;SDS011;37474;59.468;18.040;2022-08-11T20:25:15;2.70;;;1.40;;
50379;SDS011;37474;59.468;18.040;2022-08-11T20:28:04;2.65;;;1.27;;
50379;SDS011;37474;59.468;18.040;2022-08-11T20:30:53;2.60;;;1.25;;
50379;SDS011;37474;59.468;18.040;2022-08-11T20:33:39;3.63;;;1.35;;
50379;SDS011;37474;59.468;18.040;2022-08-11T20:36:29;1.40;;;1.30;;
50379;SDS011;37474;59.468;18.040;2022-08-11T20:39:20;2.90;;;1.40;;
50379;SDS011;37474;59.468;18.040;2022-08-11T20:42:10;2.60;;;1.30;;
50379;SDS011;37474;59.468;18.040;2022-08-11T20:44:57;6.00;;;1.65;;
50379;SDS011;37474;59.468;18.040;2022-08-11T20:47:52;2.63;;;1.58;;
50379;SDS011;37474;59.468;18.040;2022-08-11T20:50:41;4.45;;;1.50;;
50379;SDS011;37474;59.468;18.040;2022-08-11T20:53:51;4.95;;;1.80;;
50379;SDS011;37474;59.468;18.040;2022-08-11T20:56:41;3.03;;;1.60;;
50379;SDS011;37474;59.468;18.040;2022-08-11T20:59:27;3.83;;;1.42;;
50379;SDS011;37474;59.468;18.040;2022-08-11T21:02:24;3.30;;;1.40;;
50379;SDS011;37474;59.468;18.040;2022-08-11T21:05:16;5.47;;;1.58;;
50379;SDS011;37474;59.468;18.040;2022-08-11T21:08:25;3.20;;;1.65;;
50379;SDS011;37474;59.468;18.040;2022-08-11T21:11:15;3.53;;;2.05;;
50379;SDS011;37474;59.468;18.040;2022-08-11T21:14:05;6.55;;;1.77;;
50379;SDS011;37474;59.468;18.040;2022-08-11T21:16:57;6.30;;;1.80;;
50379;SDS011;37474;59.468;18.040;2022-08-11T21:19:56;3.63;;;1.60;;
50379;SDS011;37474;59.468;18.040;2022-08-11T21:22:51;3.08;;;1.48;;
50379;SDS011;37474;59.468;18.040;2022-08-11T21:25:52;3.05;;;1.60;;
50379;SDS011;37474;59.468;18.040;2022-08-11T21:28:45;1.83;;;1.25;;
50379;SDS011;37474;59.468;18.040;2022-08-11T21:31:31;3.53;;;1.50;;
50379;SDS011;37474;59.468;18.040;2022-08-11T21:34:21;5.50;;;2.08;;
50379;SDS011;37474;59.468;18.040;2022-08-11T21:37:08;2.08;;;1.60;;
50379;SDS011;37474;59.468;18.040;2022-08-11T21:40:02;4.57;;;1.90;;
50379;SDS011;37474;59.468;18.040;2022-08-11T21:42:50;4.40;;;1.70;;
50379;SDS011;37474;59.468;18.040;2022-08-11T21:45:41;2.97;;;1.52;;
50379;SDS011;37474;59.468;18.040;2022-08-11T21:48:27;3.55;;;1.63;;
50379;SDS011;37474;59.468;18.040;2022-08-11T21:51:18;3.33;;;1.63;;
50379;SDS011;37474;59.468;18.040;2022-08-11T21:54:09;5.55;;;1.48;;
50379;SDS011;37474;59.468;18.040;2022-08-11T21:57:00;3.65;;;1.73;;
50379;SDS011;37474;59.468;18.040;2022-08-11T21:59:47;4.57;;;1.67;;
50379;SDS011;37474;59.468;18.040;2022-08-11T22:02:42;2.45;;;1.50;;
50379;SDS011;37474;59.468;18.040;2022-08-11T22:05:31;2.63;;;1.55;;
50379;SDS011;37474;59.468;18.040;2022-08-11T22:08:20;3.95;;;1.40;;
50379;SDS011;37474;59.468;18.040;2022-08-11T22:11:05;2.50;;;1.50;;
50379;SDS011;37474;59.468;18.040;2022-08-11T22:13:59;7.22;;;1.83;;
50379;SDS011;37474;59.468;18.040;2022-08-11T22:16:46;3.28;;;1.80;;
50379;SDS011;37474;59.468;18.040;2022-08-11T22:19:32;3.88;;;1.90;;
50379;SDS011;37474;59.468;18.040;2022-08-11T22:22:19;4.10;;;1.77;;
50379;SDS011;37474;59.468;18.040;2022-08-11T22:25:19;3.72;;;1.50;;
50379;SDS011;37474;59.468;18.040;2022-08-11T22:28:19;4.50;;;1.77;;
50379;SDS011;37474;59.468;18.040;2022-08-11T22:31:08;2.55;;;1.70;;
50379;SDS011;37474;59.468;18.040;2022-08-11T22:33:55;5.93;;;1.85;;
50379;SDS011;37474;59.468;18.040;2022-08-11T22:36:42;2.45;;;1.70;;
50379;SDS011;37474;59.468;18.040;2022-08-11T22:39:32;4.13;;;1.90;;
50379;SDS011;37474;59.468;18.040;2022-08-11T22:42:28;3.50;;;2.00;;
50379;SDS011;37474;59.468;18.040;2022-08-11T22:45:16;3.78;;;1.52;;
50379;SDS011;37474;59.468;18.040;2022-08-11T22:48:05;2.75;;;1.67;;
50379;SDS011;37474;59.468;18.040;2022-08-11T22:50:55;4.25;;;1.70;;
50379;SDS011;37474;59.468;18.040;2022-08-11T22:53:44;2.72;;;1.77;;
50379;SDS011;37474;59.468;18.040;2022-08-11T22:56:31;2.85;;;1.88;;
50379;SDS011;37474;59.468;18.040;2022-08-11T22:59:19;3.63;;;1.60;;
50379;SDS011;37474;59.468;18.040;2022-08-11T23:02:06;3.38;;;1.60;;
50379;SDS011;37474;59.468;18.040;2022-08-11T23:04:56;3.13;;;1.70;;
50379;SDS011;37474;59.468;18.040;2022-08-11T23:07:45;2.88;;;1.85;;
50379;SDS011;37474;59.468;18.040;2022-08-11T23:10:33;2.72;;;1.60;;
50379;SDS011;37474;59.468;18.040;2022-08-11T23:13:22;4.60;;;2.13;;
50379;SDS011;37474;59.468;18.040;2022-08-11T23:16:09;2.33;;;1.70;;
50379;SDS011;37474;59.468;18.040;2022-08-11T23:18:57;4.47;;;1.88;;
50379;SDS011;37474;59.468;18.040;2022-08-11T23:22:06;3.47;;;1.95;;
50379;SDS011;37474;59.468;18.040;2022-08-11T23:25:14;2.55;;;1.65;;
50379;SDS011;37474;59.468;18.040;2022-08-11T23:28:03;3.10;;;2.00;;
50379;SDS011;37474;59.468;18.040;2022-08-11T23:30:52;4.25;;;2.10;;
50379;SDS011;37474;59.468;18.040;2022-08-11T23:33:43;6.10;;;2.20;;
50379;SDS011;37474;59.468;18.040;2022-08-11T23:36:32;2.83;;;1.75;;
50379;SDS011;37474;59.468;18.040;2022-08-11T23:39:21;6.10;;;1.97;;
50379;SDS011;37474;59.468;18.040;2022-08-11T23:42:08;3.55;;;1.85;;
50379;SDS011;37474;59.468;18.040;2022-08-11T23:45:01;4.65;;;1.98;;
50379;SDS011;37474;59.468;18.040;2022-08-11T23:47:50;3.78;;;2.03;;
50379;SDS011;37474;59.468;18.040;2022-08-11T23:50:38;2.63;;;2.00;;
50379;SDS011;37474;59.468;18.040;2022-08-11T23:53:26;4.03;;;2.13;;
50379;SDS011;37474;59.468;18.040;2022-08-11T23:56:15;4.15;;;1.90;;
50379;SDS011;37474;59.468;18.040;2022-08-11T23:59:04;6.18;;;2.38;;
